createdAt,value
2018-08-03T00:00:14.784Z,63.02
2018-08-03T00:01:14.814Z,62.7
2018-08-03T00:02:14.576Z,62.89
2018-08-03T00:03:14.604Z,62.79
2018-08-03T00:04:14.887Z,62.89
2018-08-03T00:05:15.014Z,63.18
2018-08-03T00:06:14.944Z,62.6
2018-08-03T00:07:14.962Z,63.18
2018-08-03T00:08:14.991Z,62.12
2018-08-03T00:10:15.041Z,61.73
2018-08-03T00:11:15.073Z,62.02
2018-08-03T00:12:15.092Z,61.92
2018-08-03T00:13:14.864Z,62.21
2018-08-03T00:14:14.886Z,62.89
2018-08-03T00:15:15.169Z,62.5
2018-08-03T00:16:15.193Z,62.89
2018-08-03T00:17:15.219Z,63.08
2018-08-03T00:18:14.987Z,63.08
2018-08-03T00:19:15.012Z,62.21
2018-08-03T00:20:15.297Z,62.12
2018-08-03T00:21:15.320Z,62.31
2018-08-03T00:22:15.351Z,62.6
2018-08-03T00:23:15.114Z,62.02
2018-08-03T00:24:15.401Z,62.6
2018-08-03T00:25:15.429Z,62.31
2018-08-03T00:26:15.453Z,62.6
2018-08-03T00:27:15.474Z,63.37
2018-08-03T00:28:15.503Z,62.79
2018-08-03T00:29:15.528Z,63.28
2018-08-03T00:30:15.555Z,62.79
2018-08-03T00:31:30.238Z,62.79
2018-08-03T00:32:15.609Z,63.18
2018-08-03T00:33:15.627Z,63.28
2018-08-03T00:34:15.653Z,62.79
2018-08-03T00:35:15.421Z,63.08
2018-08-03T00:36:15.704Z,63.08
2018-08-03T00:37:15.732Z,62.79
2018-08-03T00:38:15.502Z,63.28
2018-08-03T00:39:15.834Z,63.08
2018-08-03T00:41:15.835Z,62.4
2018-08-03T00:42:15.860Z,61.92
2018-08-03T00:43:15.881Z,62.98
2018-08-03T00:44:15.910Z,62.02
2018-08-03T00:45:15.942Z,62.5
2018-08-03T00:46:15.703Z,62.21
2018-08-03T00:47:30.657Z,62.98
2018-08-03T00:48:16.010Z,62.6
2018-08-03T00:49:16.033Z,62.4
2018-08-03T00:50:16.061Z,63.08
2018-08-03T00:51:16.089Z,63.28
2018-08-03T00:52:16.115Z,62.89
2018-08-03T00:53:16.139Z,62.7
2018-08-03T00:54:16.168Z,63.47
2018-08-03T00:56:16.214Z,63.85
2018-08-03T00:57:16.249Z,63.95
2018-08-03T00:58:16.272Z,63.76
2018-08-03T00:59:16.302Z,63.76
2018-08-03T01:00:16.316Z,64.63
2018-08-03T01:01:16.085Z,64.24
2018-08-03T01:02:16.369Z,64.24
2018-08-03T01:03:31.054Z,64.5
2018-08-03T01:04:16.418Z,64.63
2018-08-03T01:05:16.454Z,64.14
2018-08-03T01:08:16.523Z,65.08
2018-08-03T01:09:16.546Z,65.27
2018-08-03T01:10:16.575Z,65.66
2018-08-03T01:11:16.605Z,66.05
2018-08-03T01:13:16.647Z,65.95
2018-08-03T01:14:16.674Z,66.43
2018-08-03T01:15:16.701Z,66.33
2018-08-03T01:16:16.721Z,67.01
2018-08-03T01:17:16.749Z,66.91
2018-08-03T01:18:16.772Z,67.4
2018-08-03T01:19:31.464Z,67.69
2018-08-03T01:20:16.826Z,67.69
2018-08-03T01:21:16.854Z,67.97
2018-08-03T01:22:16.619Z,67.78
2018-08-03T01:23:16.900Z,68.23
2018-08-03T01:24:16.928Z,68.17
2018-08-03T01:25:16.952Z,68.52
2018-08-03T01:26:16.977Z,68.52
2018-08-03T01:27:17.010Z,68.71
2018-08-03T01:28:17.031Z,68.33
2018-08-03T01:29:17.057Z,68.91
2018-08-03T01:30:17.078Z,68.91
2018-08-03T01:31:17.105Z,68.13
2018-08-03T01:32:17.137Z,68.52
2018-08-03T01:33:17.157Z,68.33
2018-08-03T01:34:31.843Z,69.1
2018-08-03T01:35:17.213Z,69.39
2018-08-03T01:36:17.230Z,68.52
2018-08-03T01:37:17.256Z,68.91
2018-08-03T01:38:17.289Z,68.62
2018-08-03T01:39:17.313Z,68.33
2018-08-03T01:40:17.337Z,68.62
2018-08-03T01:41:17.102Z,68.33
2018-08-03T01:42:17.385Z,68.26
2018-08-03T01:43:17.412Z,67.59
2018-08-03T01:44:17.440Z,67.97
2018-08-03T01:45:17.466Z,67.69
2018-08-03T01:46:17.492Z,67.69
2018-08-03T01:47:17.513Z,67.59
2018-08-03T01:48:17.539Z,67.78
2018-08-03T01:49:17.565Z,67.69
2018-08-03T01:50:17.589Z,67.88
2018-08-03T01:51:17.618Z,67.78
2018-08-03T01:52:17.640Z,68.36
2018-08-03T01:53:17.665Z,67.78
2018-08-03T01:54:17.687Z,67.97
2018-08-03T01:55:17.459Z,67.4
2018-08-03T01:56:17.483Z,67.59
2018-08-03T01:58:17.791Z,67.4
2018-08-03T01:59:17.816Z,67.4
2018-08-03T02:00:17.848Z,67.01
2018-08-03T02:02:17.636Z,67.59
2018-08-03T02:03:18.048Z,67.59
2018-08-03T02:04:17.943Z,67.4
2018-08-03T02:05:17.711Z,67.2
2018-08-03T02:06:32.657Z,67.11
2018-08-03T02:07:18.021Z,66.72
2018-08-03T02:08:18.094Z,67.3
2018-08-03T02:09:17.816Z,67.3
2018-08-03T02:10:18.096Z,67.59
2018-08-03T02:11:17.864Z,67.3
2018-08-03T02:12:18.148Z,66.72
2018-08-03T02:13:18.173Z,66.72
2018-08-03T02:14:18.205Z,67.11
2018-08-03T02:15:18.222Z,67.49
2018-08-03T02:16:18.246Z,67.11
2018-08-03T02:17:18.278Z,67.88
2018-08-03T02:18:18.298Z,67.2
2018-08-03T02:19:18.330Z,67.3
2018-08-03T02:20:18.365Z,67.88
2018-08-03T02:21:18.423Z,67.88
2018-08-03T02:22:33.064Z,67.88
2018-08-03T02:23:18.434Z,67.11
2018-08-03T02:24:18.194Z,67.01
2018-08-03T02:25:18.221Z,67.4
2018-08-03T02:26:18.503Z,67.2
2018-08-03T02:27:18.527Z,66.91
2018-08-03T02:28:18.554Z,66.82
2018-08-03T02:29:18.581Z,67.2
2018-08-03T02:30:18.612Z,66.82
2018-08-03T02:31:18.638Z,66.33
2018-08-03T02:32:18.659Z,66.24
2018-08-03T02:33:18.691Z,65.85
2018-08-03T02:34:18.710Z,65.95
2018-08-03T02:35:18.731Z,65.08
2018-08-03T02:36:18.759Z,65.37
2018-08-03T02:37:18.790Z,65.17
2018-08-03T02:38:33.469Z,65.37
2018-08-03T02:39:18.836Z,65.37
2018-08-03T02:40:18.860Z,65.17
2018-08-03T02:41:18.881Z,65.17
2018-08-03T02:42:18.659Z,65.08
2018-08-03T02:43:18.935Z,64.89
2018-08-03T02:44:18.963Z,64.98
2018-08-03T02:45:18.998Z,64.79
2018-08-03T02:46:18.761Z,64.69
2018-08-03T02:47:19.033Z,64.59
2018-08-03T02:48:19.063Z,65.08
2018-08-03T02:49:19.086Z,64.79
2018-08-03T02:50:19.117Z,64.98
2018-08-03T02:51:19.150Z,64.53
2018-08-03T02:52:19.176Z,64.98
2018-08-03T02:53:19.189Z,64.59
2018-08-03T02:54:33.875Z,64.5
2018-08-03T02:55:19.238Z,64.72
2018-08-03T02:56:19.008Z,65.11
2018-08-03T02:57:19.289Z,65.01
2018-08-03T02:58:19.059Z,64.82
2018-08-03T02:59:19.340Z,65.01
2018-08-03T03:00:19.368Z,65.27
2018-08-03T03:01:19.132Z,65.5
2018-08-03T03:02:19.421Z,65.11
2018-08-03T03:03:19.184Z,65.4
2018-08-03T03:05:19.491Z,65.2
2018-08-03T03:06:19.524Z,65.69
2018-08-03T03:07:19.619Z,65.66
2018-08-03T03:08:19.572Z,65.37
2018-08-03T03:09:34.257Z,65.11
2018-08-03T03:10:19.622Z,65.2
2018-08-03T03:11:19.386Z,64.89
2018-08-03T03:12:19.668Z,65.47
2018-08-03T03:13:19.695Z,65.95
2018-08-03T03:14:19.720Z,65.66
2018-08-03T03:15:19.747Z,65.47
2018-08-03T03:16:19.770Z,65.47
2018-08-03T03:17:19.795Z,65.47
2018-08-03T03:18:19.565Z,65.08
2018-08-03T03:19:19.901Z,65.47
2018-08-03T03:20:19.875Z,65.3
2018-08-03T03:21:19.901Z,65.37
2018-08-03T03:22:19.925Z,64.98
2018-08-03T03:23:19.948Z,64.98
2018-08-03T03:24:19.974Z,65.5
2018-08-03T03:25:20.000Z,65.11
2018-08-03T03:26:20.025Z,65.47
2018-08-03T03:27:20.060Z,65.56
2018-08-03T03:28:20.079Z,65.66
2018-08-03T03:29:20.101Z,65.78
2018-08-03T03:30:20.126Z,65.85
2018-08-03T03:31:20.154Z,66.05
2018-08-03T03:32:20.186Z,66.24
2018-08-03T03:33:20.207Z,66.17
2018-08-03T03:35:20.255Z,65.85
2018-08-03T03:36:20.279Z,66.14
2018-08-03T03:38:20.072Z,65.75
2018-08-03T03:39:20.359Z,65.66
2018-08-03T03:40:20.380Z,66.24
2018-08-03T03:41:35.069Z,65.56
2018-08-03T03:42:20.432Z,65.85
2018-08-03T03:43:20.199Z,66.05
2018-08-03T03:44:20.480Z,65.95
2018-08-03T03:45:20.506Z,65.95
2018-08-03T03:46:20.534Z,66.05
2018-08-03T03:47:20.559Z,66.27
2018-08-03T03:48:20.325Z,65.98
2018-08-03T03:49:20.352Z,66.17
2018-08-03T03:50:20.634Z,66.05
2018-08-03T03:52:20.681Z,66.24
2018-08-03T03:53:20.715Z,66.08
2018-08-03T03:54:20.737Z,65.98
2018-08-03T03:55:20.761Z,66.43
2018-08-03T03:56:20.788Z,66.36
2018-08-03T03:57:35.475Z,66.08
2018-08-03T03:58:20.581Z,65.78
2018-08-03T03:59:20.951Z,66.08
2018-08-03T04:00:20.897Z,65.98
2018-08-03T04:01:20.655Z,65.78
2018-08-03T04:02:20.943Z,65.98
2018-08-03T04:03:20.965Z,65.88
2018-08-03T04:04:20.990Z,65.98
2018-08-03T04:05:21.015Z,66.27
2018-08-03T04:06:21.041Z,65.98
2018-08-03T04:07:21.067Z,67.04
2018-08-03T04:08:21.118Z,65.88
2018-08-03T04:09:21.118Z,65.88
2018-08-03T04:10:21.148Z,66.08
2018-08-03T04:11:21.174Z,65.78
2018-08-03T04:12:21.289Z,65.59
2018-08-03T04:13:35.884Z,65.59
2018-08-03T04:14:21.245Z,65.78
2018-08-03T04:15:21.274Z,66.27
2018-08-03T04:16:21.294Z,66.46
2018-08-03T04:17:21.320Z,66.3
2018-08-03T04:18:21.346Z,65.82
2018-08-03T04:19:21.371Z,66.08
2018-08-03T04:20:21.407Z,66.66
2018-08-03T04:21:21.429Z,66.46
2018-08-03T04:22:21.447Z,66.4
2018-08-03T04:23:21.481Z,66.69
2018-08-03T04:24:21.498Z,66.98
2018-08-03T04:25:21.527Z,67.17
2018-08-03T04:26:21.293Z,66.98
2018-08-03T04:27:21.577Z,67.04
2018-08-03T04:28:21.602Z,66.94
2018-08-03T04:29:36.293Z,66.98
2018-08-03T04:30:21.656Z,66.98
2018-08-03T04:31:21.678Z,67.56
2018-08-03T04:32:21.706Z,67.33
2018-08-03T04:33:21.729Z,67.66
2018-08-03T04:34:21.766Z,67.14
2018-08-03T04:35:21.779Z,67.17
2018-08-03T04:36:21.810Z,67.36
2018-08-03T04:37:21.837Z,67.27
2018-08-03T04:38:21.870Z,67.52
2018-08-03T04:39:21.900Z,67.17
2018-08-03T04:40:21.910Z,67.04
2018-08-03T04:41:21.933Z,67.91
2018-08-03T04:42:22.231Z,68.01
2018-08-03T04:43:21.990Z,69.26
2018-08-03T04:44:36.675Z,68.3
2018-08-03T04:45:22.039Z,68.3
2018-08-03T04:46:22.060Z,68.68
2018-08-03T04:47:22.092Z,68.88
2018-08-03T04:48:22.113Z,68.4
2018-08-03T04:49:22.146Z,67.82
2018-08-03T04:50:22.164Z,67.91
2018-08-03T04:51:22.190Z,67.04
2018-08-03T04:52:21.958Z,67.24
2018-08-03T04:53:22.242Z,66.94
2018-08-03T04:54:22.265Z,67.36
2018-08-03T04:55:22.294Z,67.56
2018-08-03T04:56:22.323Z,67.27
2018-08-03T04:57:22.344Z,67.27
2018-08-03T04:58:22.373Z,67.75
2018-08-03T04:59:22.401Z,67.36
2018-08-03T05:00:22.166Z,67.66
2018-08-03T05:01:22.449Z,67.46
2018-08-03T05:02:22.215Z,66.11
2018-08-03T05:03:22.250Z,66.2
2018-08-03T05:04:22.525Z,64.69
2018-08-03T05:05:22.295Z,61.95
2018-08-03T05:06:22.580Z,60.46
2018-08-03T05:07:22.604Z,58.87
2018-08-03T05:08:22.629Z,56.86
2018-08-03T05:11:22.714Z,53.86
2018-08-03T05:12:22.740Z,52.59
2018-08-03T05:13:22.782Z,51.94
2018-08-03T05:14:22.795Z,52.26
2018-08-03T05:15:22.891Z,50.63
2018-08-03T05:16:37.515Z,49.78
2018-08-03T05:17:22.881Z,49.99
2018-08-03T05:18:22.912Z,49.32
2018-08-03T05:19:22.680Z,48.36
2018-08-03T05:20:22.971Z,48.07
2018-08-03T05:21:22.995Z,48.75
2018-08-03T05:22:23.024Z,49.8
2018-08-03T05:23:23.055Z,50.95
2018-08-03T05:24:23.279Z,51.12
2018-08-03T05:25:23.113Z,51.21
2018-08-03T05:26:23.139Z,52.16
2018-08-03T05:27:23.171Z,52.43
2018-08-03T05:28:23.204Z,53.4
2018-08-03T05:29:23.234Z,53.01
2018-08-03T05:30:23.354Z,53.47
2018-08-03T05:31:23.032Z,54.54
2018-08-03T05:32:37.980Z,54.35
2018-08-03T05:33:23.092Z,53.77
2018-08-03T05:34:23.374Z,53.2
2018-08-03T05:35:23.477Z,52.16
2018-08-03T05:36:23.645Z,50.75
2018-08-03T05:37:23.460Z,49.8
2018-08-03T05:38:23.488Z,49.41
2018-08-03T05:39:23.526Z,49.34
2018-08-03T05:41:23.578Z,48.58
2018-08-03T05:42:23.675Z,48.39
2018-08-03T05:43:23.382Z,47.63
2018-08-03T05:44:23.671Z,46.97
2018-08-03T05:45:23.755Z,46.46
2018-08-03T05:46:23.731Z,46.19
2018-08-03T05:47:23.761Z,44.96
2018-08-03T05:48:38.454Z,44.55
2018-08-03T05:49:23.824Z,44.03
2018-08-03T05:50:24.056Z,44.03
2018-08-03T05:51:23.886Z,43.73
2018-08-03T05:52:24.054Z,43.09
2018-08-03T05:53:23.951Z,41.52
2018-08-03T05:54:23.988Z,40.39
2018-08-03T05:55:24.014Z,40.78
2018-08-03T05:56:24.047Z,40.09
2018-08-03T05:58:24.118Z,38.56
2018-08-03T05:59:24.147Z,38.39
2018-08-03T06:00:23.921Z,38.48
2018-08-03T06:01:23.960Z,38.48
2018-08-03T06:02:24.243Z,38.76
2018-08-03T06:03:24.021Z,38.39
2018-08-03T06:04:38.976Z,37.32
2018-08-03T06:05:24.349Z,37.26
2018-08-03T06:06:24.416Z,36.88
2018-08-03T06:07:24.416Z,35.53
2018-08-03T06:08:24.448Z,34.46
2018-08-03T06:09:24.226Z,34.58
2018-08-03T06:10:24.514Z,34.28
2018-08-03T06:11:24.550Z,34.28
2018-08-03T06:12:24.330Z,34.3
2018-08-03T06:13:24.620Z,34.18
2018-08-03T06:14:24.658Z,35.54
2018-08-03T06:15:24.697Z,34.08
2018-08-03T06:16:24.725Z,34
2018-08-03T06:17:24.762Z,34.1
2018-08-03T06:18:24.801Z,34.3
2018-08-03T06:19:39.498Z,35.27
2018-08-03T06:20:24.870Z,33.98
2018-08-03T06:21:24.904Z,34.1
2018-08-03T06:22:24.939Z,34.18
2018-08-03T06:23:24.996Z,34.06
2018-08-03T06:24:25.014Z,33.67
2018-08-03T06:25:24.790Z,34.74
2018-08-03T06:26:25.081Z,35.02
2018-08-03T06:27:25.119Z,35.21
2018-08-03T06:28:25.219Z,35.39
2018-08-03T06:29:25.207Z,35.02
2018-08-03T06:30:25.238Z,34.63
2018-08-03T06:31:25.267Z,34.34
2018-08-03T06:33:25.344Z,33.79
2018-08-03T06:34:25.423Z,32.8
2018-08-03T06:35:25.410Z,33.41
2018-08-03T06:36:25.457Z,33.29
2018-08-03T06:37:25.482Z,33.49
2018-08-03T06:38:25.262Z,33.38
2018-08-03T06:39:25.294Z,33.39
2018-08-03T06:40:25.592Z,33.49
2018-08-03T06:41:25.626Z,33.58
2018-08-03T06:42:25.663Z,33.2
2018-08-03T06:43:25.701Z,33.69
2018-08-03T06:44:25.741Z,32.32
2018-08-03T06:46:25.811Z,31.96
2018-08-03T06:47:25.851Z,32.73
2018-08-03T06:48:25.993Z,31.95
2018-08-03T06:49:25.931Z,32.56
2018-08-03T06:50:25.962Z,32.16
2018-08-03T06:51:40.663Z,31.95
2018-08-03T06:52:26.033Z,31.27
2018-08-03T06:53:25.862Z,32.45
2018-08-03T06:54:26.108Z,31.85
2018-08-03T06:55:26.155Z,32.14
2018-08-03T06:56:26.189Z,32.34
2018-08-03T06:57:26.264Z,31.65
2018-08-03T06:58:26.257Z,31.75
2018-08-03T07:00:26.077Z,30.96
2018-08-03T07:01:26.368Z,31.85
2018-08-03T07:02:26.408Z,32.6
2018-08-03T07:03:26.447Z,32.48
2018-08-03T07:04:26.592Z,32.97
2018-08-03T07:05:26.518Z,31.9
2018-08-03T07:06:26.555Z,31.83
2018-08-03T07:07:41.260Z,31.73
2018-08-03T07:08:26.801Z,31.83
2018-08-03T07:09:26.412Z,31.35
2018-08-03T07:10:26.451Z,31.73
2018-08-03T07:11:26.745Z,31.83
2018-08-03T07:12:26.524Z,31.35
2018-08-03T07:13:26.822Z,31.26
2018-08-03T07:14:26.970Z,30.86
2018-08-03T07:16:26.932Z,31.16
2018-08-03T07:17:26.970Z,31.27
2018-08-03T07:18:27.012Z,31.37
2018-08-03T07:19:26.789Z,31.82
2018-08-03T07:20:26.888Z,30.94
2018-08-03T07:21:26.865Z,30.86
2018-08-03T07:22:26.906Z,30.98
2018-08-03T07:23:41.863Z,30.09
2018-08-03T07:24:26.987Z,29.8
2018-08-03T07:25:27.273Z,30.6
2018-08-03T07:26:27.315Z,30.3
2018-08-03T07:27:27.350Z,29.83
2018-08-03T07:28:27.387Z,29.93
2018-08-03T07:29:27.428Z,29.52
2018-08-03T07:30:27.465Z,29.52
2018-08-03T07:31:27.533Z,29.82
2018-08-03T07:32:27.545Z,29.44
2018-08-03T07:33:27.578Z,29.57
2018-08-03T07:35:27.655Z,28.78
2018-08-03T07:36:27.692Z,28.88
2018-08-03T07:37:27.732Z,28.78
2018-08-03T07:38:27.512Z,28.58
2018-08-03T07:39:42.474Z,28.48
2018-08-03T07:40:27.845Z,28.86
2018-08-03T07:41:27.888Z,28.66
2018-08-03T07:42:27.925Z,27.89
2018-08-03T07:43:28.043Z,28.08
2018-08-03T07:44:28.027Z,27.98
2018-08-03T07:45:28.039Z,27.98
2018-08-03T07:46:28.078Z,27.77
2018-08-03T07:47:28.114Z,27.49
2018-08-03T07:48:28.158Z,27.59
2018-08-03T07:49:27.943Z,27.01
2018-08-03T07:50:28.265Z,27.7
2018-08-03T07:51:28.270Z,27.48
2018-08-03T07:52:28.337Z,27.89
2018-08-03T07:53:28.351Z,27.9
2018-08-03T07:54:43.053Z,27.5
2018-08-03T07:55:28.430Z,26.91
2018-08-03T07:56:28.464Z,26.91
2018-08-03T07:57:28.552Z,27.62
2018-08-03T07:58:28.542Z,27.91
2018-08-03T07:59:28.580Z,27.6
2018-08-03T08:00:28.617Z,28.17
2018-08-03T08:01:28.659Z,28.08
2018-08-03T08:03:28.733Z,27.79
2018-08-03T08:05:28.812Z,27.11
2018-08-03T08:06:28.851Z,27.21
2018-08-03T08:07:28.631Z,27.4
2018-08-03T08:08:28.926Z,26.7
2018-08-03T08:09:29.085Z,27.6
2018-08-03T08:10:29.001Z,27.77
2018-08-03T08:11:29.043Z,27.28
2018-08-03T08:12:29.078Z,27.75
2018-08-03T08:13:29.118Z,28.03
2018-08-03T08:14:29.160Z,28.05
2018-08-03T08:15:29.202Z,27.96
2018-08-03T08:16:29.232Z,27.58
2018-08-03T08:17:29.282Z,27.18
2018-08-03T08:18:29.312Z,26.61
2018-08-03T08:19:29.347Z,26.44
2018-08-03T08:21:29.423Z,25.96
2018-08-03T08:22:29.464Z,25.95
2018-08-03T08:23:29.498Z,25.84
2018-08-03T08:24:29.539Z,27.12
2018-08-03T08:25:29.321Z,27.5
2018-08-03T08:26:44.280Z,27.58
2018-08-03T08:27:29.396Z,26.98
2018-08-03T08:28:29.706Z,27.58
2018-08-03T08:29:29.729Z,26.98
2018-08-03T08:30:29.770Z,27.39
2018-08-03T08:31:29.853Z,26.77
2018-08-03T08:32:29.844Z,28.16
2018-08-03T08:33:29.884Z,28.33
2018-08-03T08:34:29.919Z,28.51
2018-08-03T08:35:29.960Z,28.1
2018-08-03T08:36:29.737Z,28.14
2018-08-03T08:38:30.074Z,29.27
2018-08-03T08:39:30.111Z,28.89
2018-08-03T08:40:30.148Z,28.92
2018-08-03T08:41:30.185Z,27.45
2018-08-03T08:42:44.889Z,26.57
2018-08-03T08:43:30.430Z,26.49
2018-08-03T08:44:30.296Z,26.01
2018-08-03T08:45:30.340Z,27.36
2018-08-03T08:47:30.413Z,28.03
2018-08-03T08:48:30.450Z,27.44
2018-08-03T08:49:30.487Z,27.66
2018-08-03T08:50:30.532Z,26.5
2018-08-03T08:51:30.561Z,27
2018-08-03T08:53:30.388Z,28.11
2018-08-03T08:54:30.680Z,28.31
2018-08-03T08:55:30.454Z,27.75
2018-08-03T08:56:30.753Z,28.16
2018-08-03T08:57:30.528Z,27.26
2018-08-03T08:58:45.489Z,27.69
2018-08-03T08:59:30.918Z,27.29
2018-08-03T09:00:30.642Z,26.12
2018-08-03T09:01:30.683Z,26.13
2018-08-03T09:02:30.973Z,26.23
2018-08-03T09:03:31.010Z,26.71
2018-08-03T09:04:31.049Z,27.67
2018-08-03T09:05:31.085Z,26.96
2018-08-03T09:06:31.124Z,26.89
2018-08-03T09:07:31.416Z,26.9
2018-08-03T09:08:31.198Z,26.71
2018-08-03T09:10:31.275Z,25.74
2018-08-03T09:11:31.307Z,25.37
2018-08-03T09:12:31.347Z,25.66
2018-08-03T09:13:31.384Z,26.15
2018-08-03T09:14:46.093Z,25.93
2018-08-03T09:15:31.458Z,26.25
2018-08-03T09:16:31.503Z,25.56
2018-08-03T09:17:31.532Z,25.46
2018-08-03T09:18:31.793Z,24.79
2018-08-03T09:19:31.605Z,25.48
2018-08-03T09:20:31.642Z,25.37
2018-08-03T09:21:31.422Z,25.63
2018-08-03T09:22:31.720Z,24.96
2018-08-03T09:24:31.837Z,25.55
2018-08-03T09:25:31.828Z,25.55
2018-08-03T09:26:31.865Z,25.67
2018-08-03T09:27:31.902Z,25.18
2018-08-03T09:28:32.141Z,24.89
2018-08-03T09:29:46.642Z,24.69
2018-08-03T09:30:32.014Z,24.78
2018-08-03T09:31:32.052Z,25.74
2018-08-03T09:32:32.087Z,26.4
2018-08-03T09:33:32.125Z,26.42
2018-08-03T09:34:32.160Z,26.2
2018-08-03T09:35:32.196Z,26.01
2018-08-03T09:37:32.274Z,26.77
2018-08-03T09:38:32.308Z,27.38
2018-08-03T09:39:32.345Z,26.2
2018-08-03T09:40:32.381Z,25.82
2018-08-03T09:41:32.420Z,26.23
2018-08-03T09:42:32.462Z,25.54
2018-08-03T09:43:32.490Z,25.56
2018-08-03T09:44:32.529Z,25.26
2018-08-03T09:45:32.564Z,26.9
2018-08-03T09:46:32.605Z,26.67
2018-08-03T09:47:32.635Z,27.36
2018-08-03T09:49:32.707Z,28.78
2018-08-03T09:50:32.746Z,28.2
2018-08-03T09:51:32.779Z,28.11
2018-08-03T09:52:32.816Z,27.73
2018-08-03T09:53:32.857Z,27.35
2018-08-03T09:54:32.962Z,27.45
2018-08-03T09:55:32.934Z,27.25
2018-08-03T09:56:32.964Z,26.76
2018-08-03T09:57:32.998Z,26.67
2018-08-03T09:58:32.776Z,27.65
2018-08-03T09:59:32.914Z,28.31
2018-08-03T10:00:32.847Z,28.88
2018-08-03T10:01:47.826Z,28.88
2018-08-03T10:02:33.197Z,28.3
2018-08-03T10:03:33.209Z,27.52
2018-08-03T10:04:33.247Z,28.02
2018-08-03T10:05:33.028Z,28.1
2018-08-03T10:06:33.322Z,27.34
2018-08-03T10:07:33.353Z,26.86
2018-08-03T10:08:33.389Z,26.59
2018-08-03T10:09:33.431Z,26.2
2018-08-03T10:11:33.498Z,26.48
2018-08-03T10:12:33.537Z,26.97
2018-08-03T10:13:33.565Z,26.66
2018-08-03T10:14:33.601Z,26.28
2018-08-03T10:15:33.713Z,26.18
2018-08-03T10:16:33.670Z,26.09
2018-08-03T10:17:48.371Z,25.52
2018-08-03T10:18:33.744Z,24.76
2018-08-03T10:19:33.804Z,25.46
2018-08-03T10:20:33.815Z,24.47
2018-08-03T10:21:33.590Z,25.61
2018-08-03T10:22:34.086Z,26.17
2018-08-03T10:23:33.919Z,26.83
2018-08-03T10:24:33.694Z,27.51
2018-08-03T10:25:33.989Z,27.22
2018-08-03T10:26:33.769Z,26.71
2018-08-03T10:28:34.097Z,28.17
2018-08-03T10:29:34.168Z,28.75
2018-08-03T10:30:34.161Z,29.99
2018-08-03T10:31:34.204Z,29.99
2018-08-03T10:32:34.234Z,29.8
2018-08-03T10:33:48.931Z,30.49
2018-08-03T10:34:34.302Z,30.68
2018-08-03T10:35:34.079Z,30.49
2018-08-03T10:36:34.371Z,30.38
2018-08-03T10:37:34.149Z,29.59
2018-08-03T10:38:34.446Z,30
2018-08-03T10:39:34.472Z,29.31
2018-08-03T10:40:34.507Z,30
2018-08-03T10:42:34.576Z,30.1
2018-08-03T10:43:34.617Z,30.1
2018-08-03T10:44:34.646Z,30.41
2018-08-03T10:45:34.678Z,29.74
2018-08-03T10:46:34.717Z,30.21
2018-08-03T10:47:34.754Z,29.83
2018-08-03T10:48:34.817Z,29.63
2018-08-03T10:49:49.483Z,29.27
2018-08-03T10:50:34.851Z,29.37
2018-08-03T10:51:34.962Z,29.63
2018-08-03T10:52:34.922Z,30.1
2018-08-03T10:53:34.958Z,29.79
2018-08-03T10:54:34.990Z,30.56
2018-08-03T10:55:35.027Z,30.84
2018-08-03T10:56:35.058Z,31.01
2018-08-03T10:57:35.092Z,30.93
2018-08-03T10:59:35.166Z,31.45
2018-08-03T11:00:35.195Z,31.94
2018-08-03T11:02:35.266Z,30.36
2018-08-03T11:03:35.322Z,30.76
2018-08-03T11:04:50.000Z,30.58
2018-08-03T11:06:35.397Z,30.46
2018-08-03T11:07:35.172Z,30.56
2018-08-03T11:08:35.465Z,30.85
2018-08-03T11:09:35.499Z,30.3
2018-08-03T11:10:35.528Z,30.47
2018-08-03T11:11:35.566Z,30.56
2018-08-03T11:13:35.668Z,30.85
2018-08-03T11:14:35.666Z,30.56
2018-08-03T11:15:35.698Z,31.15
2018-08-03T11:16:35.476Z,31.05
2018-08-03T11:17:35.763Z,31.23
2018-08-03T11:18:35.798Z,31.13
2018-08-03T11:19:35.928Z,32.01
2018-08-03T11:20:35.861Z,31.99
2018-08-03T11:21:35.898Z,32.68
2018-08-03T11:22:35.670Z,32.3
2018-08-03T11:23:35.961Z,31.63
2018-08-03T11:24:35.738Z,31.73
2018-08-03T11:25:36.027Z,31.33
2018-08-03T11:26:36.058Z,31.9
2018-08-03T11:27:36.094Z,31.9
2018-08-03T11:28:36.125Z,32.38
2018-08-03T11:31:36.225Z,30.94
2018-08-03T11:32:36.253Z,31.15
2018-08-03T11:33:36.288Z,30.95
2018-08-03T11:34:36.326Z,30.85
2018-08-03T11:35:36.354Z,31.73
2018-08-03T11:36:51.055Z,32.01
2018-08-03T11:37:36.418Z,31.82
2018-08-03T11:38:36.452Z,31.63
2018-08-03T11:39:36.486Z,31.82
2018-08-03T11:40:36.259Z,31.82
2018-08-03T11:41:36.551Z,32.01
2018-08-03T11:42:36.582Z,32.48
2018-08-03T11:43:36.619Z,33.15
2018-08-03T11:44:36.651Z,32.86
2018-08-03T11:45:36.683Z,33.15
2018-08-03T11:46:36.711Z,32.38
2018-08-03T11:47:36.746Z,32.18
2018-08-03T11:48:36.776Z,32.18
2018-08-03T11:49:36.817Z,32.59
2018-08-03T11:50:36.842Z,31.71
2018-08-03T11:51:36.879Z,31.89
2018-08-03T11:52:51.568Z,32.59
2018-08-03T11:53:36.935Z,32.57
2018-08-03T11:54:36.973Z,31.89
2018-08-03T11:56:37.035Z,31.81
2018-08-03T11:57:37.065Z,32.3
2018-08-03T11:58:37.096Z,32.4
2018-08-03T12:00:37.172Z,31.9
2018-08-03T12:03:37.259Z,32.9
2018-08-03T12:04:37.290Z,32.21
2018-08-03T12:05:37.322Z,33.07
2018-08-03T12:06:37.604Z,33.25
2018-08-03T12:08:52.080Z,33.34
2018-08-03T12:09:37.452Z,33.05
2018-08-03T12:10:37.485Z,32.97
2018-08-03T12:11:37.258Z,33.26
2018-08-03T12:12:37.799Z,32.97
2018-08-03T12:13:37.321Z,33.15
2018-08-03T12:14:37.367Z,32.87
2018-08-03T12:15:37.385Z,32.78
2018-08-03T12:16:37.675Z,32.21
2018-08-03T12:18:37.737Z,32.02
2018-08-03T12:19:37.771Z,32.02
2018-08-03T12:20:37.801Z,32.41
2018-08-03T12:21:37.832Z,32.23
2018-08-03T12:22:37.868Z,31.73
2018-08-03T12:23:38.079Z,31.92
2018-08-03T12:24:52.592Z,32.1
2018-08-03T12:25:37.959Z,31.89
2018-08-03T12:26:37.992Z,31.7
2018-08-03T12:27:38.024Z,31.71
2018-08-03T12:29:37.831Z,31.71
2018-08-03T12:30:38.118Z,31.71
2018-08-03T12:31:38.343Z,31.81
2018-08-03T12:32:38.185Z,31.73
2018-08-03T12:33:38.216Z,32.09
2018-08-03T12:34:38.250Z,32.28
2018-08-03T12:35:38.279Z,31.89
2018-08-03T12:36:38.321Z,32.18
2018-08-03T12:37:38.402Z,32.09
2018-08-03T12:38:38.377Z,32.3
2018-08-03T12:39:53.073Z,31.53
2018-08-03T12:40:38.442Z,32.01
2018-08-03T12:41:38.214Z,32.78
2018-08-03T12:43:38.284Z,33.51
2018-08-03T12:44:38.565Z,33.61
2018-08-03T12:45:38.596Z,34.1
2018-08-03T12:46:38.633Z,33.8
2018-08-03T12:47:38.664Z,33.61
2018-08-03T12:48:38.695Z,33.41
2018-08-03T12:49:38.723Z,33.14
2018-08-03T12:50:38.502Z,33.23
2018-08-03T12:51:38.900Z,31.97
2018-08-03T12:52:38.936Z,32.07
2018-08-03T12:53:38.849Z,31.89
2018-08-03T12:54:38.885Z,31.89
2018-08-03T12:55:38.654Z,31.89
2018-08-03T12:56:39.040Z,32.68
2018-08-03T12:57:38.974Z,32.28
2018-08-03T12:58:39.013Z,33.07
2018-08-03T12:59:39.139Z,33.15
2018-08-03T13:00:39.072Z,33.36
2018-08-03T13:01:39.100Z,32.97
2018-08-03T13:02:38.977Z,32.97
2018-08-03T13:03:39.177Z,32.28
2018-08-03T13:04:39.197Z,32.78
2018-08-03T13:06:39.005Z,32.01
2018-08-03T13:08:39.328Z,31.9
2018-08-03T13:09:39.354Z,32.68
2018-08-03T13:10:39.384Z,33.07
2018-08-03T13:11:54.083Z,32.97
2018-08-03T13:12:39.498Z,32.28
2018-08-03T13:13:39.482Z,32.78
2018-08-03T13:15:39.548Z,32.09
2018-08-03T13:16:39.572Z,32.78
2018-08-03T13:17:39.605Z,32.09
2018-08-03T13:18:39.636Z,31.9
2018-08-03T13:19:39.408Z,31.9
2018-08-03T13:21:39.736Z,32.12
2018-08-03T13:23:39.806Z,32.2
2018-08-03T13:24:39.826Z,31.71
2018-08-03T13:25:39.858Z,31.43
2018-08-03T13:26:39.894Z,31.63
2018-08-03T13:27:54.583Z,32.02
2018-08-03T13:28:39.974Z,31.05
2018-08-03T13:29:39.984Z,31.04
2018-08-03T13:30:40.013Z,31.92
2018-08-03T13:31:40.044Z,32.12
2018-08-03T13:32:40.076Z,31.9
2018-08-03T13:33:40.109Z,32.01
2018-08-03T13:34:39.882Z,31.99
2018-08-03T13:37:40.236Z,31.9
2018-08-03T13:38:40.265Z,32.09
2018-08-03T13:39:40.311Z,31.99
2018-08-03T13:40:40.328Z,31.79
2018-08-03T13:42:40.394Z,32.37
2018-08-03T13:43:55.086Z,32.86
2018-08-03T13:44:40.613Z,32.97
2018-08-03T13:45:40.487Z,32.78
2018-08-03T13:46:40.259Z,32.2
2018-08-03T13:47:40.546Z,32.28
2018-08-03T13:48:40.579Z,31.99
2018-08-03T13:49:40.611Z,32.28
2018-08-03T13:50:40.642Z,32.87
2018-08-03T13:51:40.682Z,32.57
2018-08-03T13:52:40.703Z,32.18